sensor_id;sensor_type;location;lat;lon;timestamp;temperature;humidity
84340;SHT30;74521;45.618;5.212;2023-12-29T00:00:44;20.99;48.46
84340;SHT30;74521;45.618;5.212;2023-12-29T00:03:11;20.98;48.48
84340;SHT30;74521;45.618;5.212;2023-12-29T00:05:38;20.99;48.51
84340;SHT30;74521;45.618;5.212;2023-12-29T00:08:05;21.01;48.42
84340;SHT30;74521;45.618;5.212;2023-12-29T00:10:32;21.02;48.47
84340;SHT30;74521;45.618;5.212;2023-12-29T00:12:59;21.03;48.44
84340;SHT30;74521;45.618;5.212;2023-12-29T00:15:27;21.05;48.47
84340;SHT30;74521;45.618;5.212;2023-12-29T00:17:54;21.02;48.45
84340;SHT30;74521;45.618;5.212;2023-12-29T00:20:20;21.03;48.51
84340;SHT30;74521;45.618;5.212;2023-12-29T00:22:47;21.01;48.51
84340;SHT30;74521;45.618;5.212;2023-12-29T00:25:14;21.01;48.51
84340;SHT30;74521;45.618;5.212;2023-12-29T00:27:41;21.01;48.41
84340;SHT30;74521;45.618;5.212;2023-12-29T00:30:08;20.99;48.46
84340;SHT30;74521;45.618;5.212;2023-12-29T00:32:36;21.02;48.45
84340;SHT30;74521;45.618;5.212;2023-12-29T00:35:04;20.99;48.48
84340;SHT30;74521;45.618;5.212;2023-12-29T00:37:30;20.99;48.54
84340;SHT30;74521;45.618;5.212;2023-12-29T00:39:57;21.01;48.60
84340;SHT30;74521;45.618;5.212;2023-12-29T00:42:23;21.03;48.65
84340;SHT30;74521;45.618;5.212;2023-12-29T00:44:50;21.02;48.66
84340;SHT30;74521;45.618;5.212;2023-12-29T00:47:17;21.01;48.64
84340;SHT30;74521;45.618;5.212;2023-12-29T00:49:46;21.03;48.65
84340;SHT30;74521;45.618;5.212;2023-12-29T00:52:12;21.03;48.61
84340;SHT30;74521;45.618;5.212;2023-12-29T00:54:40;21.03;48.64
84340;SHT30;74521;45.618;5.212;2023-12-29T00:57:06;21.03;48.65
84340;SHT30;74521;45.618;5.212;2023-12-29T00:59:36;21.02;48.66
84340;SHT30;74521;45.618;5.212;2023-12-29T01:02:03;21.03;48.59
84340;SHT30;74521;45.618;5.212;2023-12-29T01:04:30;21.02;48.63
84340;SHT30;74521;45.618;5.212;2023-12-29T01:06:58;21.02;48.59
84340;SHT30;74521;45.618;5.212;2023-12-29T01:09:26;20.99;48.62
84340;SHT30;74521;45.618;5.212;2023-12-29T01:11:52;21.01;48.65
84340;SHT30;74521;45.618;5.212;2023-12-29T01:14:19;21.03;48.65
84340;SHT30;74521;45.618;5.212;2023-12-29T01:16:46;21.03;48.61
84340;SHT30;74521;45.618;5.212;2023-12-29T01:19:12;21.08;48.62
84340;SHT30;74521;45.618;5.212;2023-12-29T01:21:39;21.06;48.64
84340;SHT30;74521;45.618;5.212;2023-12-29T01:24:07;21.03;48.64
84340;SHT30;74521;45.618;5.212;2023-12-29T01:26:36;21.05;48.62
84340;SHT30;74521;45.618;5.212;2023-12-29T01:29:03;21.02;48.60
84340;SHT30;74521;45.618;5.212;2023-12-29T01:31:30;21.05;48.64
84340;SHT30;74521;45.618;5.212;2023-12-29T01:33:57;21.02;48.64
84340;SHT30;74521;45.618;5.212;2023-12-29T01:36:24;21.02;48.65
84340;SHT30;74521;45.618;5.212;2023-12-29T01:38:50;21.02;48.66
84340;SHT30;74521;45.618;5.212;2023-12-29T01:41:21;21.01;48.68
84340;SHT30;74521;45.618;5.212;2023-12-29T01:44:18;20.98;48.73
84340;SHT30;74521;45.618;5.212;2023-12-29T01:46:46;21.01;48.68
84340;SHT30;74521;45.618;5.212;2023-12-29T01:49:14;21.01;48.65
84340;SHT30;74521;45.618;5.212;2023-12-29T01:51:42;21.02;48.69
84340;SHT30;74521;45.618;5.212;2023-12-29T01:54:09;21.05;48.66
84340;SHT30;74521;45.618;5.212;2023-12-29T01:56:38;21.06;48.65
84340;SHT30;74521;45.618;5.212;2023-12-29T01:59:05;21.05;48.68
84340;SHT30;74521;45.618;5.212;2023-12-29T02:01:32;21.03;48.66
84340;SHT30;74521;45.618;5.212;2023-12-29T02:03:58;21.03;48.74
84340;SHT30;74521;45.618;5.212;2023-12-29T02:06:25;21.03;48.69
84340;SHT30;74521;45.618;5.212;2023-12-29T02:08:53;21.05;48.72
84340;SHT30;74521;45.618;5.212;2023-12-29T02:11:19;21.02;48.72
84340;SHT30;74521;45.618;5.212;2023-12-29T02:13:47;21.03;48.66
84340;SHT30;74521;45.618;5.212;2023-12-29T02:16:20;21.03;48.66
84340;SHT30;74521;45.618;5.212;2023-12-29T02:18:50;21.02;48.70
84340;SHT30;74521;45.618;5.212;2023-12-29T02:21:17;21.02;48.76
84340;SHT30;74521;45.618;5.212;2023-12-29T02:23:49;21.02;48.69
84340;SHT30;74521;45.618;5.212;2023-12-29T02:26:20;21.02;48.71
84340;SHT30;74521;45.618;5.212;2023-12-29T02:28:55;21.05;48.77
84340;SHT30;74521;45.618;5.212;2023-12-29T02:31:27;21.03;48.78
84340;SHT30;74521;45.618;5.212;2023-12-29T02:33:55;21.05;48.70
84340;SHT30;74521;45.618;5.212;2023-12-29T02:36:22;21.06;48.80
84340;SHT30;74521;45.618;5.212;2023-12-29T02:38:50;21.05;48.75
84340;SHT30;74521;45.618;5.212;2023-12-29T02:41:18;21.05;48.79
84340;SHT30;74521;45.618;5.212;2023-12-29T02:43:45;21.05;48.79
84340;SHT30;74521;45.618;5.212;2023-12-29T02:46:12;21.05;48.79
84340;SHT30;74521;45.618;5.212;2023-12-29T02:48:38;21.03;48.81
84340;SHT30;74521;45.618;5.212;2023-12-29T02:51:05;21.02;48.82
84340;SHT30;74521;45.618;5.212;2023-12-29T02:53:33;21.02;48.81
84340;SHT30;74521;45.618;5.212;2023-12-29T02:56:00;21.05;48.82
84340;SHT30;74521;45.618;5.212;2023-12-29T02:58:28;21.05;48.85
84340;SHT30;74521;45.618;5.212;2023-12-29T03:00:55;21.05;48.79
84340;SHT30;74521;45.618;5.212;2023-12-29T03:03:21;21.06;48.75
84340;SHT30;74521;45.618;5.212;2023-12-29T03:05:48;21.06;48.72
84340;SHT30;74521;45.618;5.212;2023-12-29T03:08:14;21.05;48.78
84340;SHT30;74521;45.618;5.212;2023-12-29T03:10:41;21.06;48.76
84340;SHT30;74521;45.618;5.212;2023-12-29T03:13:08;21.03;48.78
84340;SHT30;74521;45.618;5.212;2023-12-29T03:15:36;21.03;48.79
84340;SHT30;74521;45.618;5.212;2023-12-29T03:18:20;21.05;48.76
84340;SHT30;74521;45.618;5.212;2023-12-29T03:20:47;21.02;48.81
84340;SHT30;74521;45.618;5.212;2023-12-29T03:23:14;21.03;48.77
84340;SHT30;74521;45.618;5.212;2023-12-29T03:25:40;21.01;48.78
84340;SHT30;74521;45.618;5.212;2023-12-29T03:28:07;21.01;48.82
84340;SHT30;74521;45.618;5.212;2023-12-29T03:30:33;21.05;48.78
84340;SHT30;74521;45.618;5.212;2023-12-29T03:33:02;21.06;48.81
84340;SHT30;74521;45.618;5.212;2023-12-29T03:35:28;21.08;48.79
84340;SHT30;74521;45.618;5.212;2023-12-29T03:37:55;21.08;48.78
84340;SHT30;74521;45.618;5.212;2023-12-29T03:40:21;21.06;48.86
84340;SHT30;74521;45.618;5.212;2023-12-29T03:42:48;21.05;48.83
84340;SHT30;74521;45.618;5.212;2023-12-29T03:45:15;21.03;48.81
84340;SHT30;74521;45.618;5.212;2023-12-29T03:47:41;21.03;48.80
84340;SHT30;74521;45.618;5.212;2023-12-29T03:50:09;21.03;48.77
84340;SHT30;74521;45.618;5.212;2023-12-29T03:52:36;21.03;48.75
84340;SHT30;74521;45.618;5.212;2023-12-29T03:55:05;21.02;48.75
84340;SHT30;74521;45.618;5.212;2023-12-29T03:57:31;21.02;48.77
84340;SHT30;74521;45.618;5.212;2023-12-29T03:59:58;21.01;48.81
84340;SHT30;74521;45.618;5.212;2023-12-29T04:02:25;21.02;48.78
84340;SHT30;74521;45.618;5.212;2023-12-29T04:04:51;21.03;48.78
84340;SHT30;74521;45.618;5.212;2023-12-29T04:07:19;21.03;48.84
84340;SHT30;74521;45.618;5.212;2023-12-29T04:09:46;21.03;48.88
84340;SHT30;74521;45.618;5.212;2023-12-29T04:12:12;21.06;48.86
84340;SHT30;74521;45.618;5.212;2023-12-29T04:14:39;21.06;48.94
84340;SHT30;74521;45.618;5.212;2023-12-29T04:17:06;21.06;48.92
84340;SHT30;74521;45.618;5.212;2023-12-29T04:19:39;21.06;48.92
84340;SHT30;74521;45.618;5.212;2023-12-29T04:22:05;21.03;48.91
84340;SHT30;74521;45.618;5.212;2023-12-29T04:24:33;21.05;48.92
84340;SHT30;74521;45.618;5.212;2023-12-29T04:27:00;21.03;48.92
84340;SHT30;74521;45.618;5.212;2023-12-29T04:29:27;21.03;48.90
84340;SHT30;74521;45.618;5.212;2023-12-29T04:31:53;21.03;48.96
84340;SHT30;74521;45.618;5.212;2023-12-29T04:34:20;21.02;48.92
84340;SHT30;74521;45.618;5.212;2023-12-29T04:36:47;21.03;48.93
84340;SHT30;74521;45.618;5.212;2023-12-29T04:39:13;21.06;48.98
84340;SHT30;74521;45.618;5.212;2023-12-29T04:41:41;21.06;48.96
84340;SHT30;74521;45.618;5.212;2023-12-29T04:44:08;21.05;48.97
84340;SHT30;74521;45.618;5.212;2023-12-29T04:46:35;21.05;48.98
84340;SHT30;74521;45.618;5.212;2023-12-29T04:49:01;21.05;49.01
84340;SHT30;74521;45.618;5.212;2023-12-29T04:51:28;21.06;48.95
84340;SHT30;74521;45.618;5.212;2023-12-29T04:53:55;21.08;48.91
84340;SHT30;74521;45.618;5.212;2023-12-29T04:56:21;21.06;48.91
84340;SHT30;74521;45.618;5.212;2023-12-29T04:58:51;21.05;48.89
84340;SHT30;74521;45.618;5.212;2023-12-29T05:01:17;21.05;48.89
84340;SHT30;74521;45.618;5.212;2023-12-29T05:03:44;21.02;48.90
84340;SHT30;74521;45.618;5.212;2023-12-29T05:06:11;21.05;48.93
84340;SHT30;74521;45.618;5.212;2023-12-29T05:08:37;21.03;48.89
84340;SHT30;74521;45.618;5.212;2023-12-29T05:11:04;21.03;48.97
84340;SHT30;74521;45.618;5.212;2023-12-29T05:13:30;21.03;48.97
84340;SHT30;74521;45.618;5.212;2023-12-29T05:15:58;21.06;48.91
84340;SHT30;74521;45.618;5.212;2023-12-29T05:18:25;21.06;48.94
84340;SHT30;74521;45.618;5.212;2023-12-29T05:20:53;21.05;48.94
84340;SHT30;74521;45.618;5.212;2023-12-29T05:23:19;21.05;48.94
84340;SHT30;74521;45.618;5.212;2023-12-29T05:25:46;21.05;48.96
84340;SHT30;74521;45.618;5.212;2023-12-29T05:28:12;21.06;48.95
84340;SHT30;74521;45.618;5.212;2023-12-29T05:30:39;21.05;48.90
84340;SHT30;74521;45.618;5.212;2023-12-29T05:33:07;21.05;48.90
84340;SHT30;74521;45.618;5.212;2023-12-29T05:35:34;21.03;48.92
84340;SHT30;74521;45.618;5.212;2023-12-29T05:38:01;21.02;48.87
84340;SHT30;74521;45.618;5.212;2023-12-29T05:40:27;21.01;48.90
84340;SHT30;74521;45.618;5.212;2023-12-29T05:42:54;21.03;48.92
84340;SHT30;74521;45.618;5.212;2023-12-29T05:45:21;21.02;48.95
84340;SHT30;74521;45.618;5.212;2023-12-29T05:47:47;21.02;48.97
84340;SHT30;74521;45.618;5.212;2023-12-29T05:50:15;21.06;49.00
84340;SHT30;74521;45.618;5.212;2023-12-29T05:52:42;21.03;48.99
84340;SHT30;74521;45.618;5.212;2023-12-29T05:55:09;21.03;48.99
84340;SHT30;74521;45.618;5.212;2023-12-29T05:57:35;21.03;49.02
84340;SHT30;74521;45.618;5.212;2023-12-29T06:00:02;21.03;49.01
84340;SHT30;74521;45.618;5.212;2023-12-29T06:02:30;21.03;49.00
84340;SHT30;74521;45.618;5.212;2023-12-29T06:04:56;21.05;49.04
84340;SHT30;74521;45.618;5.212;2023-12-29T06:07:24;21.02;49.03
84340;SHT30;74521;45.618;5.212;2023-12-29T06:09:51;21.02;48.99
84340;SHT30;74521;45.618;5.212;2023-12-29T06:12:17;21.01;48.95
84340;SHT30;74521;45.618;5.212;2023-12-29T06:14:44;21.03;49.03
84340;SHT30;74521;45.618;5.212;2023-12-29T06:17:10;21.01;49.09
84340;SHT30;74521;45.618;5.212;2023-12-29T06:19:37;21.05;49.10
84340;SHT30;74521;45.618;5.212;2023-12-29T06:22:04;21.03;49.08
84340;SHT30;74521;45.618;5.212;2023-12-29T06:24:32;21.06;49.11
84340;SHT30;74521;45.618;5.212;2023-12-29T06:26:59;21.05;49.10
84340;SHT30;74521;45.618;5.212;2023-12-29T06:29:26;21.03;49.06
84340;SHT30;74521;45.618;5.212;2023-12-29T06:31:52;21.02;49.15
84340;SHT30;74521;45.618;5.212;2023-12-29T06:34:19;21.02;49.09
84340;SHT30;74521;45.618;5.212;2023-12-29T06:36:45;21.01;49.09
84340;SHT30;74521;45.618;5.212;2023-12-29T06:39:12;21.02;49.11
84340;SHT30;74521;45.618;5.212;2023-12-29T06:41:40;21.01;49.02
84340;SHT30;74521;45.618;5.212;2023-12-29T06:44:06;21.01;49.06
84340;SHT30;74521;45.618;5.212;2023-12-29T06:46:33;20.99;49.05
84340;SHT30;74521;45.618;5.212;2023-12-29T06:49:00;21.01;49.21
84340;SHT30;74521;45.618;5.212;2023-12-29T06:51:26;21.01;49.15
84340;SHT30;74521;45.618;5.212;2023-12-29T06:53:53;21.03;49.08
84340;SHT30;74521;45.618;5.212;2023-12-29T06:56:20;21.03;49.02
84340;SHT30;74521;45.618;5.212;2023-12-29T06:58:49;21.02;49.06
84340;SHT30;74521;45.618;5.212;2023-12-29T07:01:16;21.05;49.02
84340;SHT30;74521;45.618;5.212;2023-12-29T07:03:42;21.03;49.07
84340;SHT30;74521;45.618;5.212;2023-12-29T07:06:09;21.03;49.13
84340;SHT30;74521;45.618;5.212;2023-12-29T07:08:36;21.03;49.12
84340;SHT30;74521;45.618;5.212;2023-12-29T07:11:03;21.02;49.13
84340;SHT30;74521;45.618;5.212;2023-12-29T07:13:30;21.02;49.08
84340;SHT30;74521;45.618;5.212;2023-12-29T07:15:58;21.01;49.13
84340;SHT30;74521;45.618;5.212;2023-12-29T07:18:24;21.02;49.12
84340;SHT30;74521;45.618;5.212;2023-12-29T07:20:51;20.98;49.15
84340;SHT30;74521;45.618;5.212;2023-12-29T07:23:18;20.99;49.19
84340;SHT30;74521;45.618;5.212;2023-12-29T07:25:44;20.99;49.15
84340;SHT30;74521;45.618;5.212;2023-12-29T07:28:11;21.02;49.12
84340;SHT30;74521;45.618;5.212;2023-12-29T07:30:37;21.01;49.21
84340;SHT30;74521;45.618;5.212;2023-12-29T07:33:06;21.03;49.11
84340;SHT30;74521;45.618;5.212;2023-12-29T07:35:32;21.02;49.13
84340;SHT30;74521;45.618;5.212;2023-12-29T07:37:59;21.02;49.13
84340;SHT30;74521;45.618;5.212;2023-12-29T07:40:26;21.01;49.15
84340;SHT30;74521;45.618;5.212;2023-12-29T07:42:52;21.02;49.08
84340;SHT30;74521;45.618;5.212;2023-12-29T07:45:19;20.98;49.07
84340;SHT30;74521;45.618;5.212;2023-12-29T07:47:46;21.02;49.03
84340;SHT30;74521;45.618;5.212;2023-12-29T07:50:14;20.98;49.00
84340;SHT30;74521;45.618;5.212;2023-12-29T07:52:42;20.96;48.99
84340;SHT30;74521;45.618;5.212;2023-12-29T07:55:09;20.99;49.05
84340;SHT30;74521;45.618;5.212;2023-12-29T07:57:35;21.01;49.13
84340;SHT30;74521;45.618;5.212;2023-12-29T08:00:03;21.02;49.08
84340;SHT30;74521;45.618;5.212;2023-12-29T08:02:31;20.99;49.03
84340;SHT30;74521;45.618;5.212;2023-12-29T08:04:58;21.01;49.03
84340;SHT30;74521;45.618;5.212;2023-12-29T08:07:26;21.03;49.00
84340;SHT30;74521;45.618;5.212;2023-12-29T08:09:52;21.01;49.01
84340;SHT30;74521;45.618;5.212;2023-12-29T08:12:19;21.03;48.98
84340;SHT30;74521;45.618;5.212;2023-12-29T08:14:46;21.01;48.93
84340;SHT30;74521;45.618;5.212;2023-12-29T08:17:12;21.02;48.95
84340;SHT30;74521;45.618;5.212;2023-12-29T08:19:40;20.98;48.91
84340;SHT30;74521;45.618;5.212;2023-12-29T08:22:06;20.99;48.92
84340;SHT30;74521;45.618;5.212;2023-12-29T08:24:34;20.95;48.89
84340;SHT30;74521;45.618;5.212;2023-12-29T08:27:02;20.95;48.94
84340;SHT30;74521;45.618;5.212;2023-12-29T08:29:29;20.95;48.87
84340;SHT30;74521;45.618;5.212;2023-12-29T08:31:56;20.95;48.87
84340;SHT30;74521;45.618;5.212;2023-12-29T08:34:22;20.95;48.86
84340;SHT30;74521;45.618;5.212;2023-12-29T08:36:49;20.95;48.85
84340;SHT30;74521;45.618;5.212;2023-12-29T08:39:16;20.98;48.89
84340;SHT30;74521;45.618;5.212;2023-12-29T08:41:44;20.98;48.90
84340;SHT30;74521;45.618;5.212;2023-12-29T08:44:11;20.96;48.92
84340;SHT30;74521;45.618;5.212;2023-12-29T08:46:37;20.95;48.92
84340;SHT30;74521;45.618;5.212;2023-12-29T08:49:04;20.95;48.91
84340;SHT30;74521;45.618;5.212;2023-12-29T08:51:30;20.92;48.94
84340;SHT30;74521;45.618;5.212;2023-12-29T08:53:57;20.94;48.91
84340;SHT30;74521;45.618;5.212;2023-12-29T08:56:24;20.92;48.93
84340;SHT30;74521;45.618;5.212;2023-12-29T08:58:52;20.90;48.92
84340;SHT30;74521;45.618;5.212;2023-12-29T09:01:18;20.90;48.95
84340;SHT30;74521;45.618;5.212;2023-12-29T09:03:45;20.88;48.94
84340;SHT30;74521;45.618;5.212;2023-12-29T09:06:12;20.88;48.94
84340;SHT30;74521;45.618;5.212;2023-12-29T09:08:39;20.91;48.89
84340;SHT30;74521;45.618;5.212;2023-12-29T09:11:06;20.91;48.88
84340;SHT30;74521;45.618;5.212;2023-12-29T09:13:32;20.92;48.95
84340;SHT30;74521;45.618;5.212;2023-12-29T09:16:00;20.94;48.98
84340;SHT30;74521;45.618;5.212;2023-12-29T09:18:27;20.94;48.98
84340;SHT30;74521;45.618;5.212;2023-12-29T09:20:53;20.94;48.97
84340;SHT30;74521;45.618;5.212;2023-12-29T09:23:20;20.92;48.98
84340;SHT30;74521;45.618;5.212;2023-12-29T09:25:47;20.91;48.99
84340;SHT30;74521;45.618;5.212;2023-12-29T09:28:13;20.92;49.03
84340;SHT30;74521;45.618;5.212;2023-12-29T09:30:40;20.91;49.02
84340;SHT30;74521;45.618;5.212;2023-12-29T09:33:08;20.88;49.04
84340;SHT30;74521;45.618;5.212;2023-12-29T09:35:37;20.88;49.09
84340;SHT30;74521;45.618;5.212;2023-12-29T09:38:04;20.90;49.04
84340;SHT30;74521;45.618;5.212;2023-12-29T09:40:31;20.91;49.02
84340;SHT30;74521;45.618;5.212;2023-12-29T09:42:59;20.91;49.00
84340;SHT30;74521;45.618;5.212;2023-12-29T09:45:28;20.95;48.94
84340;SHT30;74521;45.618;5.212;2023-12-29T09:47:56;20.96;49.06
84340;SHT30;74521;45.618;5.212;2023-12-29T09:50:25;20.96;48.99
84340;SHT30;74521;45.618;5.212;2023-12-29T09:52:53;20.96;48.97
84340;SHT30;74521;45.618;5.212;2023-12-29T09:55:21;20.96;49.05
84340;SHT30;74521;45.618;5.212;2023-12-29T09:57:49;20.96;49.11
84340;SHT30;74521;45.618;5.212;2023-12-29T10:00:17;20.96;49.05
84340;SHT30;74521;45.618;5.212;2023-12-29T10:02:44;20.95;49.07
84340;SHT30;74521;45.618;5.212;2023-12-29T10:05:10;20.95;49.05
84340;SHT30;74521;45.618;5.212;2023-12-29T10:07:39;20.92;49.11
84340;SHT30;74521;45.618;5.212;2023-12-29T10:10:07;20.92;49.07
84340;SHT30;74521;45.618;5.212;2023-12-29T10:12:34;20.92;49.07
84340;SHT30;74521;45.618;5.212;2023-12-29T10:15:05;20.94;49.08
84340;SHT30;74521;45.618;5.212;2023-12-29T10:17:43;20.94;49.04
84340;SHT30;74521;45.618;5.212;2023-12-29T10:20:20;20.98;49.04
84340;SHT30;74521;45.618;5.212;2023-12-29T10:22:54;20.99;49.03
84340;SHT30;74521;45.618;5.212;2023-12-29T10:25:23;21.01;49.08
84340;SHT30;74521;45.618;5.212;2023-12-29T10:27:50;20.99;49.04
84340;SHT30;74521;45.618;5.212;2023-12-29T10:30:18;21.02;49.00
84340;SHT30;74521;45.618;5.212;2023-12-29T10:32:49;20.99;49.06
84340;SHT30;74521;45.618;5.212;2023-12-29T10:35:16;20.96;49.05
84340;SHT30;74521;45.618;5.212;2023-12-29T10:37:43;20.99;49.07
84340;SHT30;74521;45.618;5.212;2023-12-29T10:40:17;20.96;49.07
84340;SHT30;74521;45.618;5.212;2023-12-29T10:42:51;20.98;49.06
84340;SHT30;74521;45.618;5.212;2023-12-29T10:45:18;20.95;49.10
84340;SHT30;74521;45.618;5.212;2023-12-29T10:47:45;20.96;49.06
84340;SHT30;74521;45.618;5.212;2023-12-29T10:50:12;20.94;49.11
84340;SHT30;74521;45.618;5.212;2023-12-29T10:52:39;20.99;49.08
84340;SHT30;74521;45.618;5.212;2023-12-29T10:55:08;21.02;49.06
84340;SHT30;74521;45.618;5.212;2023-12-29T10:57:38;21.03;49.01
84340;SHT30;74521;45.618;5.212;2023-12-29T11:00:06;21.03;49.00
84340;SHT30;74521;45.618;5.212;2023-12-29T11:02:33;21.05;48.97
84340;SHT30;74521;45.618;5.212;2023-12-29T11:05:04;21.05;49.00
84340;SHT30;74521;45.618;5.212;2023-12-29T11:07:32;21.05;49.02
84340;SHT30;74521;45.618;5.212;2023-12-29T11:10:00;21.05;49.00
84340;SHT30;74521;45.618;5.212;2023-12-29T11:12:28;21.05;49.05
84340;SHT30;74521;45.618;5.212;2023-12-29T11:14:57;21.03;49.01
84340;SHT30;74521;45.618;5.212;2023-12-29T11:17:26;21.03;48.99
84340;SHT30;74521;45.618;5.212;2023-12-29T11:19:53;21.05;48.96
84340;SHT30;74521;45.618;5.212;2023-12-29T11:22:20;21.06;49.01
84340;SHT30;74521;45.618;5.212;2023-12-29T11:24:48;21.05;49.00
84340;SHT30;74521;45.618;5.212;2023-12-29T11:27:16;21.08;48.90
84340;SHT30;74521;45.618;5.212;2023-12-29T11:29:42;21.09;48.91
84340;SHT30;74521;45.618;5.212;2023-12-29T11:32:14;21.09;48.96
84340;SHT30;74521;45.618;5.212;2023-12-29T11:34:49;21.09;48.95
84340;SHT30;74521;45.618;5.212;2023-12-29T11:37:28;21.11;48.93
84340;SHT30;74521;45.618;5.212;2023-12-29T11:40:08;21.12;48.87
84340;SHT30;74521;45.618;5.212;2023-12-29T11:42:40;21.09;48.89
84340;SHT30;74521;45.618;5.212;2023-12-29T11:45:24;21.13;48.86
84340;SHT30;74521;45.618;5.212;2023-12-29T11:47:53;21.12;48.89
84340;SHT30;74521;45.618;5.212;2023-12-29T11:50:28;21.11;48.86
84340;SHT30;74521;45.618;5.212;2023-12-29T11:52:56;21.11;48.86
84340;SHT30;74521;45.618;5.212;2023-12-29T11:55:28;21.11;48.84
84340;SHT30;74521;45.618;5.212;2023-12-29T11:57:55;21.11;48.84
84340;SHT30;74521;45.618;5.212;2023-12-29T12:00:43;21.11;48.82
84340;SHT30;74521;45.618;5.212;2023-12-29T12:03:24;21.16;48.81
84340;SHT30;74521;45.618;5.212;2023-12-29T12:05:52;21.12;48.80
84340;SHT30;74521;45.618;5.212;2023-12-29T12:08:30;21.15;48.79
84340;SHT30;74521;45.618;5.212;2023-12-29T12:14:04;21.12;48.82
84340;SHT30;74521;45.618;5.212;2023-12-29T12:16:47;21.12;48.79
84340;SHT30;74521;45.618;5.212;2023-12-29T12:19:14;21.11;48.77
84340;SHT30;74521;45.618;5.212;2023-12-29T12:21:45;21.12;48.77
84340;SHT30;74521;45.618;5.212;2023-12-29T12:24:12;21.11;48.80
84340;SHT30;74521;45.618;5.212;2023-12-29T12:26:40;21.11;48.76
84340;SHT30;74521;45.618;5.212;2023-12-29T12:29:08;21.12;48.80
84340;SHT30;74521;45.618;5.212;2023-12-29T12:31:35;21.11;48.75
84340;SHT30;74521;45.618;5.212;2023-12-29T12:34:02;21.11;48.76
84340;SHT30;74521;45.618;5.212;2023-12-29T12:36:30;21.13;48.75
84340;SHT30;74521;45.618;5.212;2023-12-29T12:38:57;21.16;48.73
84340;SHT30;74521;45.618;5.212;2023-12-29T12:41:26;21.16;48.72
84340;SHT30;74521;45.618;5.212;2023-12-29T12:43:59;21.13;48.73
84340;SHT30;74521;45.618;5.212;2023-12-29T12:46:33;21.15;48.75
84340;SHT30;74521;45.618;5.212;2023-12-29T12:49:00;21.13;48.73
84340;SHT30;74521;45.618;5.212;2023-12-29T12:51:28;21.13;48.75
84340;SHT30;74521;45.618;5.212;2023-12-29T12:53:55;21.09;48.76
84340;SHT30;74521;45.618;5.212;2023-12-29T12:56:24;21.12;48.78
84340;SHT30;74521;45.618;5.212;2023-12-29T12:58:53;21.12;48.80
84340;SHT30;74521;45.618;5.212;2023-12-29T13:01:21;21.11;48.80
84340;SHT30;74521;45.618;5.212;2023-12-29T13:03:49;21.12;48.82
84340;SHT30;74521;45.618;5.212;2023-12-29T13:06:16;21.15;48.80
84340;SHT30;74521;45.618;5.212;2023-12-29T13:08:43;21.15;48.78
84340;SHT30;74521;45.618;5.212;2023-12-29T13:11:10;21.16;48.75
84340;SHT30;74521;45.618;5.212;2023-12-29T13:13:38;21.18;48.75
84340;SHT30;74521;45.618;5.212;2023-12-29T13:16:05;21.18;48.78
84340;SHT30;74521;45.618;5.212;2023-12-29T13:18:33;21.18;48.74
84340;SHT30;74521;45.618;5.212;2023-12-29T13:21:02;21.22;48.73
84340;SHT30;74521;45.618;5.212;2023-12-29T13:23:29;21.18;48.77
84340;SHT30;74521;45.618;5.212;2023-12-29T13:25:59;21.18;48.79
84340;SHT30;74521;45.618;5.212;2023-12-29T13:28:31;21.19;48.80
84340;SHT30;74521;45.618;5.212;2023-12-29T13:30:58;21.18;48.81
84340;SHT30;74521;45.618;5.212;2023-12-29T13:33:31;21.18;48.75
84340;SHT30;74521;45.618;5.212;2023-12-29T13:36:06;21.16;48.75
84340;SHT30;74521;45.618;5.212;2023-12-29T13:38:40;21.15;48.82
84340;SHT30;74521;45.618;5.212;2023-12-29T13:41:12;21.19;48.78
84340;SHT30;74521;45.618;5.212;2023-12-29T13:43:42;21.20;48.77
84340;SHT30;74521;45.618;5.212;2023-12-29T13:46:11;21.23;48.75
84340;SHT30;74521;45.618;5.212;2023-12-29T13:48:40;21.22;48.81
84340;SHT30;74521;45.618;5.212;2023-12-29T13:51:09;21.25;48.78
84340;SHT30;74521;45.618;5.212;2023-12-29T13:53:35;21.26;48.82
84340;SHT30;74521;45.618;5.212;2023-12-29T13:56:08;21.29;48.81
84340;SHT30;74521;45.618;5.212;2023-12-29T13:58:35;21.26;48.82
84340;SHT30;74521;45.618;5.212;2023-12-29T14:01:07;21.30;48.80
84340;SHT30;74521;45.618;5.212;2023-12-29T14:03:40;21.29;48.78
84340;SHT30;74521;45.618;5.212;2023-12-29T14:06:12;21.32;48.77
84340;SHT30;74521;45.618;5.212;2023-12-29T14:08:45;21.29;48.82
84340;SHT30;74521;45.618;5.212;2023-12-29T14:11:12;21.30;48.77
84340;SHT30;74521;45.618;5.212;2023-12-29T14:13:41;21.32;48.81
84340;SHT30;74521;45.618;5.212;2023-12-29T14:16:08;21.29;48.81
84340;SHT30;74521;45.618;5.212;2023-12-29T14:18:53;21.32;48.76
84340;SHT30;74521;45.618;5.212;2023-12-29T14:21:26;21.33;48.75
84340;SHT30;74521;45.618;5.212;2023-12-29T14:24:01;21.32;48.75
84340;SHT30;74521;45.618;5.212;2023-12-29T14:26:28;21.35;48.74
84340;SHT30;74521;45.618;5.212;2023-12-29T14:29:05;21.35;48.69
84340;SHT30;74521;45.618;5.212;2023-12-29T14:31:35;21.36;48.69
84340;SHT30;74521;45.618;5.212;2023-12-29T14:34:03;21.36;48.67
84340;SHT30;74521;45.618;5.212;2023-12-29T14:36:31;21.40;48.69
84340;SHT30;74521;45.618;5.212;2023-12-29T14:38:58;21.35;48.67
84340;SHT30;74521;45.618;5.212;2023-12-29T14:41:25;21.33;48.67
84340;SHT30;74521;45.618;5.212;2023-12-29T14:43:52;21.36;48.68
84340;SHT30;74521;45.618;5.212;2023-12-29T14:46:18;21.32;48.68
84340;SHT30;74521;45.618;5.212;2023-12-29T14:48:45;21.32;48.71
84340;SHT30;74521;45.618;5.212;2023-12-29T14:51:12;21.33;48.69
84340;SHT30;74521;45.618;5.212;2023-12-29T14:53:42;21.33;48.74
84340;SHT30;74521;45.618;5.212;2023-12-29T14:56:09;21.30;48.65
84340;SHT30;74521;45.618;5.212;2023-12-29T14:58:35;21.30;48.70
84340;SHT30;74521;45.618;5.212;2023-12-29T15:01:03;21.33;48.73
84340;SHT30;74521;45.618;5.212;2023-12-29T15:03:29;21.32;48.69
84340;SHT30;74521;45.618;5.212;2023-12-29T15:05:56;21.32;48.69
84340;SHT30;74521;45.618;5.212;2023-12-29T15:08:23;21.33;48.71
84340;SHT30;74521;45.618;5.212;2023-12-29T15:10:51;21.30;48.71
84340;SHT30;74521;45.618;5.212;2023-12-29T15:13:18;21.29;48.71
84340;SHT30;74521;45.618;5.212;2023-12-29T15:15:45;21.28;48.67
84340;SHT30;74521;45.618;5.212;2023-12-29T15:18:11;21.29;48.72
84340;SHT30;74521;45.618;5.212;2023-12-29T15:20:38;21.28;48.71
84340;SHT30;74521;45.618;5.212;2023-12-29T15:23:05;21.25;48.69
84340;SHT30;74521;45.618;5.212;2023-12-29T15:25:33;21.28;48.70
84340;SHT30;74521;45.618;5.212;2023-12-29T15:28:01;21.26;48.71
84340;SHT30;74521;45.618;5.212;2023-12-29T15:30:27;21.26;48.72
84340;SHT30;74521;45.618;5.212;2023-12-29T15:32:54;21.26;48.67
84340;SHT30;74521;45.618;5.212;2023-12-29T15:35:20;21.28;48.69
84340;SHT30;74521;45.618;5.212;2023-12-29T15:37:47;21.28;48.73